createdAt,value
2023-03-16T00:02:06.205Z,107.04
2023-03-16T00:04:37.559Z,107.24
2023-03-16T00:07:05.995Z,107.17
2023-03-16T00:09:32.985Z,107.06
2023-03-16T00:12:03.417Z,107.48
2023-03-16T00:14:31.655Z,107.33
2023-03-16T00:16:58.547Z,107.40
2023-03-16T00:19:25.323Z,107.72
2023-03-16T00:21:52.799Z,107.69
2023-03-16T00:24:20.262Z,107.77
2023-03-16T00:26:48.022Z,107.88
2023-03-16T00:29:15.120Z,107.67
2023-03-16T00:31:45.269Z,107.54
2023-03-16T00:34:12.543Z,107.91
2023-03-16T00:36:39.741Z,108.04
2023-03-16T00:39:06.977Z,108.31
2023-03-16T00:41:37.820Z,107.80
2023-03-16T00:44:09.849Z,107.87
2023-03-16T00:46:36.700Z,107.82
2023-03-16T00:49:04.081Z,108.06
2023-03-16T00:51:33.937Z,107.95
2023-03-16T00:54:00.804Z,108.64
2023-03-16T00:56:27.618Z,108.19
2023-03-16T00:58:57.935Z,107.82
2023-03-16T01:01:24.969Z,107.38
2023-03-16T01:03:51.910Z,107.40
2023-03-16T01:06:20.525Z,107.56
2023-03-16T01:08:47.363Z,107.72
2023-03-16T01:11:17.372Z,107.89
2023-03-16T01:13:47.098Z,107.71
2023-03-16T01:16:14.897Z,107.68
2023-03-16T01:18:42.200Z,107.68
2023-03-16T01:21:10.013Z,107.74
2023-03-16T01:23:37.489Z,107.62
2023-03-16T01:26:04.398Z,107.58
2023-03-16T01:28:33.569Z,107.65
2023-03-16T01:31:09.368Z,107.49
2023-03-16T01:33:37.289Z,107.56
2023-03-16T01:36:06.128Z,107.57
2023-03-16T01:38:33.636Z,107.71
2023-03-16T01:41:01.600Z,107.94
2023-03-16T01:43:31.269Z,108.00
2023-03-16T01:46:07.144Z,107.63
2023-03-16T01:48:55.654Z,107.91
2023-03-16T01:51:29.664Z,107.80
2023-03-16T01:54:14.595Z,108.20
2023-03-16T01:56:59.999Z,108.16
2023-03-16T01:59:50.128Z,108.08
2023-03-16T02:02:21.472Z,108.35
2023-03-16T02:05:03.091Z,108.53
2023-03-16T02:07:34.863Z,108.54
2023-03-16T02:10:03.760Z,108.30
2023-03-16T02:12:30.875Z,108.11
2023-03-16T02:14:57.696Z,108.22
2023-03-16T02:17:28.616Z,108.73
2023-03-16T02:20:23.911Z,108.88
2023-03-16T02:22:54.202Z,108.70
2023-03-16T02:25:24.630Z,108.60
2023-03-16T02:28:04.323Z,109.07
2023-03-16T02:30:31.437Z,108.83
2023-03-16T02:32:58.650Z,108.50
2023-03-16T02:35:25.702Z,108.61
2023-03-16T02:37:52.665Z,108.49
2023-03-16T02:40:31.613Z,108.09
2023-03-16T02:43:15.656Z,107.91
2023-03-16T02:45:48.396Z,108.09
2023-03-16T02:48:37.934Z,108.45
2023-03-16T02:51:04.772Z,108.35
2023-03-16T02:53:31.621Z,108.59
2023-03-16T02:55:58.435Z,109.10
2023-03-16T02:58:25.436Z,109.63
2023-03-16T03:00:52.218Z,109.94
2023-03-16T03:03:19.102Z,109.36
2023-03-16T03:05:45.842Z,109.52
2023-03-16T03:08:13.067Z,109.72
2023-03-16T03:10:40.629Z,109.92
2023-03-16T03:13:07.427Z,110.20
2023-03-16T03:15:35.497Z,110.83
2023-03-16T03:18:02.827Z,110.69
2023-03-16T03:20:30.327Z,111.10
2023-03-16T03:22:57.338Z,111.49
2023-03-16T03:25:24.839Z,111.71
2023-03-16T03:27:54.471Z,111.57
2023-03-16T03:30:24.781Z,111.98
2023-03-16T03:32:52.428Z,111.84
2023-03-16T03:35:21.380Z,111.81
2023-03-16T03:37:48.232Z,112.01
2023-03-16T03:40:17.791Z,111.99
2023-03-16T03:42:44.480Z,112.71
2023-03-16T03:45:13.093Z,112.03
2023-03-16T03:47:43.846Z,111.90
2023-03-16T03:50:13.393Z,112.29
2023-03-16T03:52:40.109Z,112.81
2023-03-16T03:55:07.174Z,112.68
2023-03-16T03:57:33.875Z,112.58
2023-03-16T04:00:00.976Z,112.10
2023-03-16T04:02:28.605Z,112.18
2023-03-16T04:04:55.464Z,112.11
2023-03-16T04:07:22.205Z,112.26
2023-03-16T04:09:49.502Z,113.22
2023-03-16T04:12:16.262Z,113.45
2023-03-16T04:14:43.179Z,113.32
2023-03-16T04:17:10.324Z,113.35
2023-03-16T04:19:37.103Z,113.35
2023-03-16T04:22:03.824Z,113.51
2023-03-16T04:24:34.239Z,113.38
2023-03-16T04:27:02.747Z,113.39
2023-03-16T04:29:29.499Z,113.52
2023-03-16T04:31:56.199Z,113.39
2023-03-16T04:34:25.035Z,113.67
2023-03-16T04:36:54.769Z,113.92
2023-03-16T04:39:21.489Z,113.99
2023-03-16T04:41:48.597Z,113.67
2023-03-16T04:44:15.303Z,113.85
2023-03-16T04:46:42.230Z,113.96
2023-03-16T04:49:10.357Z,113.88
2023-03-16T04:51:38.293Z,114.10
2023-03-16T04:54:05.081Z,114.10
2023-03-16T04:56:31.833Z,114.07
2023-03-16T04:58:58.578Z,114.33
2023-03-16T05:01:25.474Z,114.24
2023-03-16T05:03:52.861Z,118.58
2023-03-16T05:06:20.053Z,114.79
2023-03-16T05:08:46.845Z,115.65
2023-03-16T05:11:13.611Z,118.99
2023-03-16T05:13:40.346Z,111.91
2023-03-16T05:16:07.459Z,113.77
2023-03-16T05:18:34.313Z,114.59
2023-03-16T05:21:01.136Z,115.10
2023-03-16T05:23:27.809Z,115.12
2023-03-16T05:25:54.672Z,114.79
2023-03-16T05:28:21.473Z,114.04
2023-03-16T05:30:48.243Z,113.57
2023-03-16T05:33:15.055Z,113.90
2023-03-16T05:35:43.065Z,114.00
2023-03-16T05:38:10.073Z,113.90
2023-03-16T05:40:37.370Z,114.19
2023-03-16T05:43:04.486Z,114.16
2023-03-16T05:45:31.537Z,114.12
2023-03-16T05:47:58.356Z,114.07
2023-03-16T05:50:26.572Z,113.90
2023-03-16T05:52:54.262Z,113.74
2023-03-16T05:55:21.019Z,112.64
2023-03-16T05:57:47.750Z,112.45
2023-03-16T06:00:16.344Z,112.18
2023-03-16T06:02:45.012Z,110.41
2023-03-16T06:05:11.932Z,110.53
2023-03-16T06:07:38.736Z,111.45
2023-03-16T06:10:06.645Z,112.02
2023-03-16T06:12:34.504Z,112.13
2023-03-16T06:15:02.291Z,111.79
2023-03-16T06:17:29.397Z,111.41
2023-03-16T06:19:56.233Z,111.07
2023-03-16T06:22:23.974Z,111.49
2023-03-16T06:24:51.566Z,111.54
2023-03-16T06:27:20.358Z,111.06
2023-03-16T06:29:47.875Z,110.28
2023-03-16T06:32:14.771Z,110.35
2023-03-16T06:34:41.731Z,109.20
2023-03-16T06:37:08.751Z,108.01
2023-03-16T06:39:35.484Z,108.29
2023-03-16T06:42:04.588Z,107.82
2023-03-16T06:44:31.541Z,106.60
2023-03-16T06:46:58.900Z,105.85
2023-03-16T06:49:25.757Z,105.21
2023-03-16T06:51:52.677Z,104.80
2023-03-16T06:54:19.394Z,104.12
2023-03-16T06:56:46.580Z,102.92
2023-03-16T06:59:13.478Z,101.50
2023-03-16T07:01:40.225Z,100.78
2023-03-16T07:04:08.168Z,101.41
2023-03-16T07:06:35.029Z,100.77
2023-03-16T07:09:02.115Z,98.72
2023-03-16T07:11:28.890Z,98.20
2023-03-16T07:13:55.585Z,97.03
2023-03-16T07:16:22.493Z,97.63
2023-03-16T07:18:49.323Z,97.41
2023-03-16T07:21:16.185Z,98.44
2023-03-16T07:23:42.973Z,96.94
2023-03-16T07:26:09.806Z,97.08
2023-03-16T07:28:36.594Z,97.56
2023-03-16T07:31:04.524Z,98.05
2023-03-16T07:33:33.008Z,99.53
2023-03-16T07:36:00.755Z,98.79
2023-03-16T07:38:27.564Z,99.03
2023-03-16T07:40:54.353Z,97.47
2023-03-16T07:43:21.076Z,97.71
2023-03-16T07:45:52.098Z,96.12
2023-03-16T07:48:19.401Z,95.59
2023-03-16T07:50:49.653Z,95.81
2023-03-16T07:53:17.065Z,94.56
2023-03-16T07:55:44.585Z,96.35
2023-03-16T07:58:11.778Z,93.99
2023-03-16T08:00:39.665Z,93.11
2023-03-16T08:03:06.933Z,93.60
2023-03-16T08:05:34.003Z,93.72
2023-03-16T08:08:04.082Z,93.26
2023-03-16T08:10:31.633Z,94.04
2023-03-16T08:12:58.767Z,92.19
2023-03-16T08:15:25.619Z,91.91
2023-03-16T08:17:52.648Z,93.00
2023-03-16T08:20:19.618Z,92.81
2023-03-16T08:22:46.818Z,93.64
2023-03-16T08:25:14.687Z,91.57
2023-03-16T08:27:43.287Z,90.10
2023-03-16T08:30:11.966Z,89.50
2023-03-16T08:32:41.016Z,87.58
2023-03-16T08:35:16.679Z,86.66
2023-03-16T08:37:43.706Z,84.94
2023-03-16T08:40:14.142Z,84.50
2023-03-16T08:42:41.586Z,81.76
2023-03-16T08:45:12.342Z,84.63
2023-03-16T08:47:40.635Z,82.05
2023-03-16T08:50:08.681Z,78.92
2023-03-16T08:52:36.509Z,78.43
2023-03-16T08:55:05.824Z,76.91
2023-03-16T08:57:33.873Z,74.87
2023-03-16T09:00:01.356Z,73.98
2023-03-16T09:02:29.083Z,70.10
2023-03-16T09:04:56.388Z,65.78
2023-03-16T09:07:23.285Z,67.85
2023-03-16T09:09:50.880Z,67.62
2023-03-16T09:12:22.331Z,67.71
2023-03-16T09:14:49.214Z,65.80
2023-03-16T09:17:15.999Z,65.03
2023-03-16T09:19:51.684Z,62.89
2023-03-16T09:22:20.669Z,65.64
2023-03-16T09:24:49.575Z,61.86
2023-03-16T09:27:16.701Z,60.02
2023-03-16T09:29:43.831Z,58.31
2023-03-16T09:32:11.073Z,56.39
2023-03-16T09:34:38.032Z,51.99
2023-03-16T09:37:05.250Z,51.16
2023-03-16T09:39:32.060Z,51.25
2023-03-16T09:42:13.974Z,49.75
2023-03-16T09:44:46.644Z,47.54
2023-03-16T09:47:16.774Z,46.10
2023-03-16T09:49:50.259Z,49.24
2023-03-16T09:52:27.231Z,48.40
2023-03-16T09:55:01.895Z,49.38
2023-03-16T09:57:34.773Z,50.26
2023-03-16T10:00:10.719Z,48.52
2023-03-16T10:02:52.788Z,48.32
2023-03-16T10:05:27.697Z,46.10
2023-03-16T10:08:21.409Z,46.06
2023-03-16T10:11:15.710Z,45.57
2023-03-16T10:14:02.535Z,46.70
2023-03-16T10:16:43.578Z,47.69
2023-03-16T10:19:19.690Z,45.99
2023-03-16T10:21:49.040Z,47.73
2023-03-16T10:24:27.166Z,48.12
2023-03-16T10:27:00.398Z,41.56
2023-03-16T10:29:34.564Z,43.35
2023-03-16T10:32:12.267Z,39.97
2023-03-16T10:34:39.042Z,38.99
2023-03-16T10:37:06.132Z,40.55
2023-03-16T10:39:37.282Z,36.59
2023-03-16T10:42:04.189Z,38.70
2023-03-16T10:44:31.026Z,38.66
2023-03-16T10:47:05.120Z,39.36
2023-03-16T10:49:44.426Z,37.85
2023-03-16T10:52:14.367Z,38.78
2023-03-16T10:54:47.839Z,37.83
2023-03-16T10:57:20.910Z,37.75
2023-03-16T11:00:21.169Z,37.85
2023-03-16T11:02:49.647Z,36.29
2023-03-16T11:05:19.758Z,35.53
2023-03-16T11:08:02.592Z,34.67
2023-03-16T11:10:40.553Z,33.80
2023-03-16T11:13:21.153Z,31.32
2023-03-16T11:15:57.398Z,31.64
2023-03-16T11:18:36.775Z,32.96
2023-03-16T11:21:18.200Z,35.57
2023-03-16T11:23:49.741Z,34.05
2023-03-16T11:26:22.800Z,35.17
2023-03-16T11:29:17.766Z,33.40
2023-03-16T11:31:53.994Z,33.44
2023-03-16T11:34:31.956Z,33.31
2023-03-16T11:37:05.140Z,33.23
2023-03-16T11:40:02.211Z,31.93
2023-03-16T11:42:35.745Z,33.15
2023-03-16T11:45:30.936Z,32.22
2023-03-16T11:48:03.993Z,30.17
2023-03-16T11:50:49.733Z,29.48
2023-03-16T11:53:36.996Z,29.24
2023-03-16T11:56:18.722Z,29.45
2023-03-16T11:59:03.674Z,29.74
2023-03-16T12:02:08.593Z,28.55
2023-03-16T12:04:38.378Z,27.97
2023-03-16T12:07:12.713Z,27.33
2023-03-16T12:09:58.835Z,26.36
2023-03-16T12:12:37.837Z,27.12
2023-03-16T12:15:40.232Z,28.39
2023-03-16T12:18:36.497Z,27.71
2023-03-16T12:21:07.554Z,27.14
2023-03-16T12:23:53.329Z,29.45
2023-03-16T12:26:23.399Z,23.66
2023-03-16T12:28:54.262Z,25.40
2023-03-16T12:31:37.526Z,26.91
2023-03-16T12:34:09.151Z,27.04
2023-03-16T12:37:02.808Z,26.63
2023-03-16T12:39:51.627Z,27.04
2023-03-16T12:42:42.798Z,27.07
2023-03-16T12:45:54.616Z,29.98
2023-03-16T12:48:21.288Z,29.94
2023-03-16T12:50:57.742Z,30.42
2023-03-16T12:53:44.986Z,29.45
2023-03-16T12:56:17.854Z,29.71
2023-03-16T12:58:50.183Z,29.87
2023-03-16T13:01:20.000Z,31.45
2023-03-16T13:03:50.518Z,31.09
2023-03-16T13:06:20.510Z,30.58
2023-03-16T13:08:59.858Z,30.14
2023-03-16T13:11:28.547Z,30.00
2023-03-16T13:14:01.775Z,29.03
2023-03-16T13:16:36.230Z,29.89
2023-03-16T13:19:29.249Z,29.70
2023-03-16T13:22:20.960Z,30.18
2023-03-16T13:25:25.610Z,29.42
2023-03-16T13:27:55.899Z,30.14
2023-03-16T13:30:34.264Z,29.17
2023-03-16T13:33:14.608Z,30.00
2023-03-16T13:35:41.737Z,30.12
2023-03-16T13:38:22.568Z,30.29
2023-03-16T13:40:51.686Z,30.44
2023-03-16T13:43:23.806Z,29.09
2023-03-16T13:45:50.733Z,30.25
2023-03-16T13:48:20.873Z,28.08
2023-03-16T13:50:57.957Z,27.45
2023-03-16T13:53:31.487Z,28.89
2023-03-16T13:56:02.137Z,27.37
2023-03-16T13:58:35.511Z,29.77
2023-03-16T14:01:05.330Z,29.27
2023-03-16T14:03:38.084Z,27.43
2023-03-16T14:06:07.384Z,27.40
2023-03-16T14:08:34.745Z,26.92
2023-03-16T14:11:02.717Z,23.34
2023-03-16T14:13:29.683Z,22.12
2023-03-16T14:15:58.939Z,22.46
2023-03-16T14:18:48.217Z,21.37
2023-03-16T14:21:22.100Z,21.85
2023-03-16T14:23:53.621Z,19.96
2023-03-16T14:26:24.728Z,21.07
2023-03-16T14:28:57.554Z,21.25
2023-03-16T14:31:35.638Z,20.53
2023-03-16T14:34:05.366Z,21.24
2023-03-16T14:36:38.077Z,21.57
2023-03-16T14:39:19.879Z,23.02
2023-03-16T14:41:51.376Z,24.44
2023-03-16T14:44:32.098Z,25.15
2023-03-16T14:47:00.286Z,26.01
2023-03-16T14:49:38.631Z,24.51
2023-03-16T14:52:15.370Z,26.14
2023-03-16T14:54:42.231Z,29.00
2023-03-16T14:57:17.015Z,26.29
2023-03-16T14:59:43.844Z,26.52
2023-03-16T15:02:17.620Z,28.29
2023-03-16T15:04:44.993Z,28.42
2023-03-16T15:07:23.984Z,27.83
2023-03-16T15:09:53.893Z,26.91
2023-03-16T15:12:24.606Z,28.59
2023-03-16T15:15:09.982Z,26.66
2023-03-16T15:17:37.100Z,27.00
2023-03-16T15:20:05.362Z,27.08
2023-03-16T15:22:36.868Z,26.64
2023-03-16T15:25:36.585Z,26.99
2023-03-16T15:28:17.534Z,30.37
2023-03-16T15:31:00.976Z,30.09
2023-03-16T15:33:28.480Z,29.24
2023-03-16T15:35:58.760Z,29.82
2023-03-16T15:38:28.216Z,29.97
2023-03-16T15:40:55.762Z,30.42
2023-03-16T15:43:28.769Z,30.64
2023-03-16T15:45:57.574Z,30.09
2023-03-16T15:48:25.458Z,30.12
2023-03-16T15:50:54.796Z,30.48
2023-03-16T15:53:39.382Z,30.32
2023-03-16T15:56:11.085Z,31.13
2023-03-16T15:58:40.211Z,31.17
2023-03-16T16:01:08.797Z,30.79
2023-03-16T16:03:35.676Z,31.99
2023-03-16T16:06:02.489Z,32.04
2023-03-16T16:08:29.223Z,32.63
2023-03-16T16:10:56.542Z,33.20
2023-03-16T16:13:43.021Z,33.79
2023-03-16T16:16:14.116Z,34.28
2023-03-16T16:18:41.564Z,35.18
2023-03-16T16:21:23.377Z,34.70
2023-03-16T16:23:55.066Z,36.33
2023-03-16T16:26:45.521Z,35.42
2023-03-16T16:29:22.164Z,36.42
2023-03-16T16:31:49.187Z,36.69
2023-03-16T16:34:18.536Z,36.27
2023-03-16T16:36:45.576Z,37.10
2023-03-16T16:39:12.638Z,36.59
2023-03-16T16:41:40.676Z,35.56
2023-03-16T16:44:20.213Z,36.22
2023-03-16T16:46:49.372Z,35.43
2023-03-16T16:49:21.559Z,36.12
2023-03-16T16:51:48.391Z,35.10
2023-03-16T16:54:27.778Z,35.85
2023-03-16T16:56:56.462Z,35.33
2023-03-16T16:59:32.451Z,35.46
2023-03-16T17:02:01.877Z,36.01
2023-03-16T17:04:29.707Z,37.58
2023-03-16T17:06:59.768Z,36.62
2023-03-16T17:09:28.105Z,36.93
2023-03-16T17:11:58.703Z,37.32
2023-03-16T17:14:27.590Z,38.02
2023-03-16T17:16:55.207Z,38.33
2023-03-16T17:19:25.875Z,38.78
2023-03-16T17:21:55.521Z,39.41
2023-03-16T17:24:22.730Z,40.05
2023-03-16T17:26:52.404Z,40.20
2023-03-16T17:29:27.242Z,40.40
2023-03-16T17:31:54.429Z,40.36
2023-03-16T17:34:27.317Z,40.44
2023-03-16T17:36:55.127Z,40.49
2023-03-16T17:39:28.993Z,41.24
2023-03-16T17:42:05.485Z,41.60
2023-03-16T17:44:39.622Z,41.76
2023-03-16T17:47:19.177Z,42.23
2023-03-16T17:49:48.693Z,42.65
2023-03-16T17:52:18.968Z,42.34
2023-03-16T17:54:47.274Z,42.19
2023-03-16T17:57:22.150Z,42.70
2023-03-16T17:59:48.998Z,42.14
2023-03-16T18:02:28.026Z,42.42
2023-03-16T18:04:55.094Z,42.07
2023-03-16T18:07:21.899Z,42.08
2023-03-16T18:09:49.124Z,42.72
2023-03-16T18:12:16.598Z,42.27
2023-03-16T18:14:43.786Z,42.65
2023-03-16T18:17:26.701Z,43.14
2023-03-16T18:19:53.811Z,43.59
2023-03-16T18:22:22.953Z,43.66
2023-03-16T18:24:51.606Z,43.48
2023-03-16T18:27:18.582Z,44.02
2023-03-16T18:29:48.339Z,44.69
2023-03-16T18:32:24.144Z,45.13
2023-03-16T18:34:52.599Z,44.78
2023-03-16T18:37:22.917Z,44.99
2023-03-16T18:39:51.510Z,45.64
2023-03-16T18:42:24.009Z,45.54
2023-03-16T18:44:51.528Z,45.81
2023-03-16T18:47:22.220Z,45.21
2023-03-16T18:49:52.902Z,44.83
2023-03-16T18:52:22.743Z,44.62
2023-03-16T18:54:50.409Z,44.80
2023-03-16T18:57:20.066Z,44.69
2023-03-16T18:59:47.737Z,44.46
2023-03-16T19:02:27.305Z,44.42
2023-03-16T19:04:56.792Z,44.64
2023-03-16T19:07:32.478Z,44.96
2023-03-16T19:10:14.647Z,44.06
2023-03-16T19:12:41.729Z,43.82
2023-03-16T19:15:22.112Z,44.51
2023-03-16T19:17:50.018Z,43.93
2023-03-16T19:20:22.471Z,44.22
2023-03-16T19:22:51.520Z,44.83
2023-03-16T19:25:29.107Z,45.09
2023-03-16T19:27:56.889Z,45.26
2023-03-16T19:30:26.875Z,45.14
2023-03-16T19:32:55.529Z,44.99
2023-03-16T19:35:33.755Z,44.67
2023-03-16T19:38:08.427Z,45.41
2023-03-16T19:40:35.334Z,44.89
2023-03-16T19:43:02.148Z,45.45
2023-03-16T19:45:34.175Z,45.61
2023-03-16T19:48:01.627Z,45.40
2023-03-16T19:50:29.545Z,46.00
2023-03-16T19:53:00.152Z,46.15
2023-03-16T19:55:31.581Z,46.28
2023-03-16T19:58:20.681Z,46.17
2023-03-16T20:00:47.919Z,45.63
2023-03-16T20:03:14.922Z,46.12
2023-03-16T20:05:41.699Z,45.85
2023-03-16T20:08:22.907Z,47.14
2023-03-16T20:10:50.911Z,46.39
2023-03-16T20:13:18.422Z,45.85
2023-03-16T20:15:45.400Z,45.94
2023-03-16T20:18:14.848Z,46.12
2023-03-16T20:20:43.238Z,46.51
2023-03-16T20:23:21.313Z,45.98
2023-03-16T20:25:49.275Z,46.49
2023-03-16T20:28:21.514Z,46.35
2023-03-16T20:30:49.616Z,46.38
2023-03-16T20:33:18.575Z,47.41
2023-03-16T20:35:46.257Z,47.18
2023-03-16T20:38:14.313Z,47.82
2023-03-16T20:40:46.505Z,48.64
2023-03-16T20:43:30.264Z,49.12
2023-03-16T20:46:02.346Z,49.25
2023-03-16T20:48:29.539Z,49.27
2023-03-16T20:50:58.137Z,50.33
2023-03-16T20:53:25.462Z,50.67
2023-03-16T20:55:53.184Z,50.27
2023-03-16T20:58:25.366Z,51.22
2023-03-16T21:00:57.571Z,51.20
2023-03-16T21:03:27.688Z,51.72
2023-03-16T21:05:58.436Z,51.66
2023-03-16T21:08:26.366Z,51.25
2023-03-16T21:10:55.132Z,51.34
2023-03-16T21:13:27.951Z,51.53
2023-03-16T21:15:55.737Z,51.68
2023-03-16T21:18:22.687Z,52.05
2023-03-16T21:20:50.625Z,51.38
2023-03-16T21:23:20.753Z,51.23
2023-03-16T21:25:49.283Z,51.11
2023-03-16T21:28:17.779Z,50.60
2023-03-16T21:30:47.584Z,49.95
2023-03-16T21:33:37.616Z,49.15
2023-03-16T21:36:08.337Z,48.93
2023-03-16T21:38:35.311Z,49.27
2023-03-16T21:41:02.204Z,49.02
2023-03-16T21:43:29.194Z,48.84
2023-03-16T21:45:57.528Z,48.69
2023-03-16T21:48:28.201Z,48.61
2023-03-16T21:50:55.785Z,48.34
2023-03-16T21:53:25.557Z,47.97
2023-03-16T21:55:54.474Z,47.40
2023-03-16T21:58:23.223Z,48.00
2023-03-16T22:00:52.760Z,47.60
2023-03-16T22:03:47.941Z,47.60
2023-03-16T22:06:16.668Z,46.56
2023-03-16T22:08:44.020Z,46.93
2023-03-16T22:11:19.961Z,46.85
2023-03-16T22:13:46.781Z,46.41
2023-03-16T22:16:16.324Z,46.45
2023-03-16T22:18:44.672Z,46.96
2023-03-16T22:21:25.113Z,46.69
2023-03-16T22:23:53.056Z,46.92
2023-03-16T22:26:22.553Z,47.35
2023-03-16T22:28:50.809Z,47.27
2023-03-16T22:31:20.897Z,47.29
2023-03-16T22:33:48.744Z,46.96
2023-03-16T22:36:19.827Z,47.22
2023-03-16T22:38:52.875Z,47.75
2023-03-16T22:41:19.609Z,47.25
2023-03-16T22:43:47.177Z,47.62
2023-03-16T22:46:26.100Z,48.06
2023-03-16T22:48:54.212Z,48.32
2023-03-16T22:51:27.665Z,48.40
2023-03-16T22:53:59.684Z,48.82
2023-03-16T22:56:27.200Z,48.92
2023-03-16T22:59:03.349Z,49.56
2023-03-16T23:01:34.433Z,49.83
2023-03-16T23:04:01.925Z,50.44
2023-03-16T23:06:35.089Z,50.76
2023-03-16T23:09:02.296Z,50.43
2023-03-16T23:11:32.874Z,50.59
2023-03-16T23:14:00.850Z,50.69
2023-03-16T23:16:34.746Z,51.02
2023-03-16T23:19:03.230Z,50.65
2023-03-16T23:21:30.714Z,50.77
2023-03-16T23:24:03.997Z,51.52
2023-03-16T23:26:32.045Z,51.46
2023-03-16T23:28:59.530Z,51.11
2023-03-16T23:31:27.224Z,51.34
2023-03-16T23:33:54.206Z,51.81
2023-03-16T23:36:24.480Z,51.96
2023-03-16T23:38:51.758Z,52.03
2023-03-16T23:41:22.717Z,51.58
2023-03-16T23:43:50.711Z,52.20
2023-03-16T23:46:20.035Z,51.87
2023-03-16T23:48:49.175Z,52.94
2023-03-16T23:51:29.509Z,52.40
2023-03-16T23:53:57.477Z,52.95
2023-03-16T23:56:25.245Z,52.50
2023-03-16T23:58:52.121Z,53.50
